Time;durP1;ratioP1;P1;durP2;ratioP2;P2;SDS_P1;SDS_P2;PMS_P1;PMS_P2;Temp;Humidity;BMP_temperature;BMP_pressure;BME280_temperature;BME280_humidity;BME280_pressure;Samples;Min_cycle;Max_cycle;Signal;HPM_P1;HPM_P2
2022/06/17 00:01:32;;;;;;;6.43;6.03;;;;;;;17.78;100.00;102275.63;5245870;28;20564;-60
2022/06/17 00:04:03;;;;;;;5.70;5.40;;;;;;;17.70;100.00;102267.94;5245116;28;20032;-60
2022/06/17 00:06:41;;;;;;;8.35;5.68;;;;;;;17.71;100.00;102272.31;5245169;28;20021;-60
2022/06/17 00:09:15;;;;;;;6.20;5.65;;;;;;;17.62;100.00;102262.97;5245332;28;20025;-59
2022/06/17 00:11:45;;;;;;;4.88;4.55;;;;;;;17.69;100.00;102290.88;5245071;28;20038;-60
2022/06/17 00:14:25;;;;;;;10.52;6.85;;;;;;;17.68;100.00;102281.03;5244782;28;20050;-61
2022/06/17 00:16:56;;;;;;;6.18;5.03;;;;;;;17.67;100.00;102276.66;5248304;28;20036;-61
2022/06/17 00:19:26;;;;;;;5.97;5.53;;;;;;;17.64;100.00;102282.63;5247745;28;20271;-61
2022/06/17 00:21:57;;;;;;;6.03;5.53;;;;;;;17.60;100.00;102276.09;5248676;28;20046;-61
2022/06/17 00:24:32;;;;;;;7.32;6.85;;;;;;;17.54;100.00;102278.81;5248444;28;20020;-61
2022/06/17 00:27:03;;;;;;;6.32;5.72;;;;;;;17.45;100.00;102274.94;5247475;28;20028;-61
2022/06/17 00:29:33;;;;;;;5.65;5.25;;;;;;;17.35;100.00;102282.25;5248092;28;20065;-60
2022/06/17 00:32:04;;;;;;;5.85;5.45;;;;;;;17.29;100.00;102281.44;5248590;28;20059;-61
2022/06/17 00:34:35;;;;;;;7.68;6.95;;;;;;;17.28;100.00;102274.34;5248207;28;20425;-61
2022/06/17 00:37:11;;;;;;;6.40;6.03;;;;;;;17.32;100.00;102274.63;5248364;28;20030;-61
2022/06/17 00:39:41;;;;;;;6.15;5.65;;;;;;;17.33;100.00;102271.59;5248471;28;20488;-61
2022/06/17 00:42:14;;;;;;;5.90;5.38;;;;;;;17.24;100.00;102275.97;5248217;28;20095;-60
2022/06/17 00:45:07;;;;;;;6.43;5.93;;;;;;;17.08;100.00;102279.69;5247968;28;20512;-60
2022/06/17 00:47:45;;;;;;;6.20;5.90;;;;;;;16.92;100.00;102277.97;5248405;28;20434;-59
2022/06/17 00:50:22;;;;;;;5.60;5.30;;;;;;;16.78;100.00;102278.41;5246496;28;20024;-60
2022/06/17 00:53:21;;;;;;;5.55;5.10;;;;;;;16.67;100.00;102282.19;5266481;28;20036;-59
2022/06/17 00:55:54;;;;;;;5.88;5.57;;;;;;;16.55;100.00;102278.78;5246215;28;20113;-60
2022/06/17 00:58:30;;;;;;;7.40;6.10;;;;;;;16.44;100.00;102301.63;5248285;28;20112;-60
2022/06/17 01:01:02;;;;;;;6.88;6.28;;;;;;;16.38;100.00;102297.19;5248164;28;20043;-60
2022/06/17 01:03:37;;;;;;;5.55;5.20;;;;;;;16.29;100.00;102279.66;5247769;28;20046;-60
2022/06/17 01:06:13;;;;;;;5.80;5.50;;;;;;;16.19;100.00;102280.38;5248048;28;20035;-59
2022/06/17 01:11:39;;;;;;;6.65;6.25;;;;;;;16.05;100.00;102277.28;5266002;28;20070;-60
2022/06/17 01:14:14;;;;;;;6.32;5.90;;;;;;;15.98;100.00;102268.47;5247690;28;20096;-60
2022/06/17 01:19:38;;;;;;;7.38;6.78;;;;;;;15.85;100.00;102263.47;5292871;28;20047;-80
2022/06/17 01:22:27;;;;;;;6.95;6.25;;;;;;;15.76;100.00;102262.25;5279288;28;20028;-80
2022/06/17 01:25:01;;;;;;;7.03;6.43;;;;;;;15.69;100.00;102261.63;5296930;28;20031;-80
2022/06/17 01:27:36;;;;;;;7.10;6.40;;;;;;;15.47;100.00;102253.47;5296327;28;20032;-81
2022/06/17 01:30:10;;;;;;;6.20;5.88;;;;;;;15.42;100.00;102272.47;5296744;28;20080;-81
2022/06/17 01:32:48;;;;;;;6.43;6.10;;;;;;;15.39;100.00;102281.94;5297995;28;20027;-80
2022/06/17 01:35:22;;;;;;;7.10;6.35;;;;;;;15.09;100.00;102241.56;5313869;28;20024;-80
2022/06/17 01:37:53;;;;;;;6.25;5.75;;;;;;;15.31;100.00;102266.06;5298012;28;20080;-80
2022/06/17 01:40:27;;;;;;;6.22;5.88;;;;;;;14.70;100.00;102153.78;5298052;28;20047;-81
2022/06/17 01:43:04;;;;;;;5.75;5.25;;;;;;;15.47;100.00;102276.06;5296690;28;20472;-81
2022/06/17 01:45:41;;;;;;;6.28;5.85;;;;;;;15.34;100.00;102260.13;5296878;28;20046;-80
2022/06/17 01:48:15;;;;;;;6.43;5.95;;;;;;;15.19;100.00;102239.00;5298081;28;20046;-80
2022/06/17 01:50:48;;;;;;;6.22;5.65;;;;;;;15.47;100.00;102283.41;5296519;28;20100;-80
2022/06/17 01:53:23;;;;;;;6.03;5.70;;;;;;;15.37;100.00;102259.59;5297616;28;20023;-80
2022/06/17 01:56:11;;;;;;;5.38;5.03;;;;;;;15.47;100.00;102262.47;5300885;28;20031;-80
2022/06/17 01:59:13;;;;;;;7.55;5.57;;;;;;;15.46;100.00;102274.44;5301998;27;20175;-80
2022/06/17 02:01:48;;;;;;;6.60;6.10;;;;;;;15.34;100.00;102251.94;5293779;28;20032;-80
2022/06/17 02:04:23;;;;;;;6.50;6.10;;;;;;;15.47;100.00;102269.81;5300179;28;20103;-79
2022/06/17 02:07:13;;;;;;;9.57;6.40;;;;;;;15.14;100.00;102221.78;5300276;28;20032;-82
2022/06/17 02:09:45;;;;;;;18.23;6.47;;;;;;;15.35;100.00;102269.94;5302174;28;20030;-80
2022/06/17 02:12:18;;;;;;;6.28;5.97;;;;;;;15.30;100.00;102269.06;5305805;28;20028;-81
2022/06/17 02:14:49;;;;;;;7.00;6.25;;;;;;;15.34;100.00;102284.59;5302882;28;20378;-79
2022/06/17 02:17:23;;;;;;;7.28;6.68;;;;;;;15.30;100.00;102279.94;5305673;28;20044;-79
2022/06/17 02:19:55;;;;;;;6.63;6.05;;;;;;;15.25;100.00;102279.88;5305185;28;20015;-80
2022/06/17 02:22:30;;;;;;;5.32;5.03;;;;;;;15.23;100.00;102268.41;5307096;28;20081;-79
2022/06/17 02:25:04;;;;;;;4.35;4.15;;;;;;;15.26;100.00;102279.63;5321456;27;20020;-79
2022/06/17 02:27:36;;;;;;;5.47;5.05;;;;;;;15.17;100.00;102275.69;5296709;27;20024;-78
2022/06/17 02:30:08;;;;;;;7.60;5.85;;;;;;;15.24;100.00;102281.78;5295308;28;20023;-78
2022/06/17 02:32:39;;;;;;;9.13;5.53;;;;;;;15.22;100.00;102283.94;5294373;28;20028;-79
2022/06/17 02:35:40;;;;;;;7.03;5.95;;;;;;;15.21;100.00;102282.28;5294946;28;20024;-78
2022/06/17 02:38:15;;;;;;;6.80;6.15;;;;;;;15.05;100.00;102264.09;5295682;28;20111;-79
2022/06/17 02:40:50;;;;;;;7.88;7.38;;;;;;;15.04;100.00;102265.16;5294273;28;20381;-80
2022/06/17 02:43:26;;;;;;;6.75;6.13;;;;;;;14.93;100.00;102252.50;5295427;28;20076;-80
2022/06/17 02:46:25;;;;;;;6.50;6.10;;;;;;;15.00;100.00;102269.47;5294574;28;20055;-77
2022/06/17 02:49:02;;;;;;;6.20;5.80;;;;;;;15.01;100.00;102282.84;5293771;28;20032;-79
2022/06/17 02:51:36;;;;;;;6.15;5.68;;;;;;;14.86;100.00;102258.13;5293663;28;20023;-80
2022/06/17 02:54:10;;;;;;;6.88;5.68;;;;;;;14.93;100.00;102280.53;5292808;28;20034;-80
2022/06/17 02:56:44;;;;;;;6.82;6.35;;;;;;;15.02;100.00;102279.00;5299003;28;20049;-80
2022/06/17 02:59:35;;;;;;;6.43;5.93;;;;;;;14.62;100.00;102197.69;5300563;28;20137;-80
2022/06/17 03:02:22;;;;;;;6.70;6.10;;;;;;;14.59;100.00;102178.34;5305788;28;20066;-81
2022/06/17 03:04:53;;;;;;;6.43;5.93;;;;;;;14.93;100.00;102230.75;5299616;28;20030;-81
2022/06/17 03:07:28;;;;;;;8.23;6.95;;;;;;;15.29;100.00;102268.25;5299389;28;20030;-80
2022/06/17 03:09:58;;;;;;;7.43;6.80;;;;;;;15.42;100.00;102291.50;5300264;28;20028;-80
2022/06/17 03:12:29;;;;;;;6.70;6.15;;;;;;;15.43;100.00;102283.09;5299984;28;20087;-80
2022/06/17 03:15:11;;;;;;;6.32;5.88;;;;;;;15.39;100.00;102271.06;5299199;28;20023;-80
2022/06/17 03:17:43;;;;;;;5.95;5.63;;;;;;;15.58;100.00;102289.84;5299810;28;20061;-80
2022/06/17 03:20:27;;;;;;;6.55;6.05;;;;;;;15.61;100.00;102281.16;5299967;28;20023;-81
2022/06/17 03:23:06;;;;;;;6.47;6.07;;;;;;;15.69;100.00;102288.88;5298669;28;20091;-80
2022/06/17 03:25:44;;;;;;;6.05;5.65;;;;;;;15.73;100.00;102279.94;5298683;27;20030;-80
2022/06/17 03:28:19;;;;;;;6.53;5.95;;;;;;;15.87;100.00;102285.81;5299551;28;20028;-80
2022/06/17 03:31:03;;;;;;;6.22;5.82;;;;;;;15.87;100.00;102274.91;5299230;27;20075;-81
2022/06/17 03:33:51;;;;;;;6.43;5.88;;;;;;;15.74;100.00;102248.06;5298214;28;20084;-80
2022/06/17 03:36:30;;;;;;;7.05;6.45;;;;;;;15.98;100.00;102281.28;5299727;28;20080;-81
2022/06/17 03:39:05;;;;;;;11.25;6.32;;;;;;;16.00;100.00;102290.00;5296681;28;20020;-81
2022/06/17 03:41:49;;;;;;;6.20;5.60;;;;;;;16.01;100.00;102297.94;5315214;27;20031;-80
2022/06/17 03:44:25;;;;;;;7.18;6.55;;;;;;;16.02;100.00;102290.59;5296503;28;20035;-81
2022/06/17 03:47:38;;;;;;;6.85;6.45;;;;;;;16.06;100.00;102291.72;5298541;28;20096;-81
2022/06/17 03:50:27;;;;;;;6.75;6.20;;;;;;;15.80;100.00;102236.97;5287465;28;20047;-81
2022/06/17 03:53:03;;;;;;;7.78;7.07;;;;;;;16.13;100.00;102279.53;5298680;28;20083;-79
2022/06/17 03:55:33;;;;;;;7.07;6.47;;;;;;;16.10;100.00;102263.69;5314796;27;20030;-81
2022/06/17 03:58:04;;;;;;;7.47;6.75;;;;;;;16.28;100.00;102291.63;5299000;28;20083;-81
2022/06/17 04:00:43;;;;;;;6.57;6.10;;;;;;;16.05;100.00;102249.19;5298392;28;20027;-80
2022/06/17 04:03:17;;;;;;;7.55;7.00;;;;;;;16.38;100.00;102289.00;5298572;28;20201;-81
2022/06/17 04:05:55;;;;;;;7.68;6.38;;;;;;;16.51;100.00;102291.28;5297767;28;20020;-81
2022/06/17 04:08:25;;;;;;;7.25;6.45;;;;;;;16.37;100.00;102252.75;5299859;28;20023;-80
2022/06/17 04:10:57;;;;;;;8.77;7.93;;;;;;;16.66;100.00;102282.44;5298802;28;20039;-80
2022/06/17 04:13:31;;;;;;;6.10;5.72;;;;;;;16.73;100.00;102274.84;5296900;28;20051;-79
2022/06/17 04:16:14;;;;;;;10.23;5.88;;;;;;;16.60;100.00;102250.72;5298959;28;20016;-82
2022/06/17 04:18:44;;;;;;;9.10;6.57;;;;;;;16.87;100.00;102274.13;5297199;28;20055;-83
2022/06/17 04:21:15;;;;;;;7.13;6.30;;;;;;;16.80;100.00;102248.16;5300571;28;20054;-81
2022/06/17 04:23:47;;;;;;;5.95;5.47;;;;;;;16.87;100.00;102241.38;5307257;27;20047;-79
2022/06/17 04:26:24;;;;;;;5.97;5.53;;;;;;;17.10;100.00;102256.50;5289875;28;20116;-78
2022/06/17 04:29:03;;;;;;;5.78;5.25;;;;;;;17.09;100.00;102240.38;5298606;28;20027;-82
2022/06/17 04:31:33;;;;;;;8.88;8.20;;;;;;;17.27;100.00;102260.94;5295952;28;20123;-82
2022/06/17 04:34:14;;;;;;;7.35;6.68;;;;;;;17.02;100.00;102216.09;5290929;28;20051;-81
2022/06/17 04:36:59;;;;;;;6.95;6.35;;;;;;;17.18;100.00;102228.69;5299773;27;20023;-79
2022/06/17 04:39:37;;;;;;;6.28;5.88;;;;;;;17.36;100.00;102251.97;5296580;28;20019;-81
2022/06/17 04:42:16;;;;;;;7.60;5.68;;;;;;;17.44;100.00;102250.63;5282916;28;20016;-81
2022/06/17 04:44:49;;;;;;;5.57;5.28;;;;;;;17.37;100.00;102211.81;5274337;28;20020;-81
2022/06/17 04:47:21;;;;;;;4.90;4.60;;;;;;;17.58;100.00;102231.84;5276832;28;20115;-82
2022/06/17 04:50:05;;;;;;;7.72;5.85;;;;;;;17.72;100.00;102246.63;5277014;28;20024;-81
2022/06/17 04:52:41;;;;;;;5.35;4.97;;;;;;;17.90;100.00;102253.53;5288170;28;20019;-82
2022/06/17 04:55:17;;;;;;;4.63;4.38;;;;;;;17.85;100.00;102233.28;5280630;28;20027;-81
2022/06/17 04:57:48;;;;;;;6.95;6.32;;;;;;;17.52;100.00;102170.91;5298428;28;20043;-81
2022/06/17 05:00:28;;;;;;;5.75;5.25;;;;;;;18.06;100.00;102239.59;5295507;28;20031;-81
2022/06/17 05:02:58;;;;;;;5.72;5.32;;;;;;;18.02;100.00;102243.94;5276131;28;20024;-81
2022/06/17 05:05:34;;;;;;;7.22;5.70;;;;;;;18.09;100.00;102241.78;5286513;28;20024;-80
2022/06/17 05:08:12;;;;;;;5.40;5.00;;;;;;;18.31;100.00;102260.63;5296793;28;20032;-82
2022/06/17 05:10:46;;;;;;;11.43;5.50;;;;;;;18.30;100.00;102252.72;5297497;28;20020;-81
2022/06/17 05:13:35;;;;;;;9.30;5.78;;;;;;;18.36;100.00;102246.97;5298747;28;20031;-80
2022/06/17 05:16:12;;;;;;;5.43;5.13;;;;;;;18.36;100.00;102237.94;5303815;28;20093;-80
2022/06/17 05:18:42;;;;;;;9.45;7.43;;;;;;;18.59;100.00;102258.44;5295484;28;20027;-80
2022/06/17 05:21:22;;;;;;;5.07;4.78;;;;;;;18.63;100.00;102256.81;5296504;28;20032;-80
2022/06/17 05:23:56;;;;;;;6.47;4.68;;;;;;;18.44;100.00;102205.41;5296301;28;20066;-81
2022/06/17 05:26:27;;;;;;;4.65;4.35;;;;;;;18.98;100.00;102255.91;5296561;28;20031;-81
2022/06/17 05:28:58;;;;;;;5.95;5.57;;;;;;;18.93;100.00;102221.16;5296849;28;20023;-80
2022/06/17 05:31:29;;;;;;;5.97;5.40;;;;;;;18.98;100.00;102176.53;5301544;28;20035;-81
2022/06/17 05:33:59;;;;;;;14.40;7.80;;;;;;;19.62;100.00;102242.25;5299931;28;20053;-81
2022/06/17 05:36:30;;;;;;;6.20;5.68;;;;;;;19.64;100.00;102206.31;5299613;28;20039;-79
2022/06/17 05:39:00;;;;;;;6.78;4.38;;;;;;;19.99;100.00;102217.03;5315579;27;20019;-81
2022/06/17 05:41:31;;;;;;;10.93;5.25;;;;;;;19.97;100.00;102185.50;5296480;28;20012;-80
2022/06/17 05:44:02;;;;;;;4.88;4.40;;;;;;;20.21;100.00;102198.16;5299236;28;20035;-81
2022/06/17 05:46:33;;;;;;;4.78;4.57;;;;;;;20.45;100.00;102222.97;5299099;28;20481;-80
2022/06/17 05:49:03;;;;;;;6.57;6.07;;;;;;;20.43;100.00;102218.88;5301341;28;20031;-80
2022/06/17 05:51:34;;;;;;;4.68;4.35;;;;;;;20.47;100.00;102222.69;5299669;28;20031;-81
2022/06/17 05:54:04;;;;;;;6.15;5.50;;;;;;;20.45;100.00;102206.50;5298680;28;20042;-81
2022/06/17 05:56:35;;;;;;;6.28;5.45;;;;;;;20.59;100.00;102216.78;5298110;28;20030;-81
2022/06/17 05:59:05;;;;;;;5.45;4.30;;;;;;;20.60;100.00;102215.69;5297888;28;20034;-80
2022/06/17 06:01:36;;;;;;;7.97;4.50;;;;;;;20.69;100.00;102212.00;5297876;28;20057;-81
2022/06/17 06:04:07;;;;;;;7.35;5.25;;;;;;;20.67;100.00;102196.94;5298339;28;20431;-81
2022/06/17 06:06:37;;;;;;;5.75;5.35;;;;;;;20.68;100.00;102206.81;5297559;28;20027;-80
2022/06/17 06:09:09;;;;;;;5.55;5.07;;;;;;;20.70;100.00;102202.66;5298226;28;20027;-81
2022/06/17 06:11:39;;;;;;;5.10;4.70;;;;;;;20.65;100.00;102199.97;5298104;27;20019;-81
2022/06/17 06:14:10;;;;;;;5.95;5.55;;;;;;;20.74;100.00;102206.47;5297276;28;20035;-80
2022/06/17 06:16:40;;;;;;;5.43;4.90;;;;;;;20.87;100.00;102216.75;5314137;27;20028;-80
2022/06/17 06:19:10;;;;;;;5.25;4.93;;;;;;;20.84;100.00;102227.47;5297549;28;20154;-81
2022/06/17 06:21:41;;;;;;;5.28;4.55;;;;;;;20.59;100.00;102176.44;5314086;27;20110;-81
2022/06/17 06:24:11;;;;;;;7.63;4.80;;;;;;;20.81;100.00;102222.56;5297670;28;20019;-82
2022/06/17 06:26:41;;;;;;;5.38;4.97;;;;;;;20.84;100.00;102225.56;5298322;28;20058;-82
2022/06/17 06:29:13;;;;;;;10.23;4.80;;;;;;;20.84;100.00;102222.00;5297639;28;20034;-81
2022/06/17 06:31:44;;;;;;;8.73;5.45;;;;;;;20.84;100.00;102220.06;5313272;27;20050;-80
2022/06/17 06:34:20;;;;;;;5.80;5.22;;;;;;;20.95;100.00;102230.94;5297726;28;20528;-80
2022/06/17 06:36:50;;;;;;;4.85;4.38;;;;;;;20.85;100.00;102216.22;5298265;28;20106;-81
2022/06/17 06:39:20;;;;;;;5.18;4.47;;;;;;;21.09;100.00;102207.13;5298846;28;20500;-84
2022/06/17 06:41:51;;;;;;;5.32;3.95;;;;;;;21.16;100.00;102199.34;5298171;28;20031;-80
2022/06/17 06:44:21;;;;;;;3.70;3.50;;;;;;;21.54;100.00;102213.97;5301931;28;20493;-83
2022/06/17 06:46:52;;;;;;;5.38;4.97;;;;;;;21.75;100.00;102207.06;5317578;27;20039;-81
2022/06/17 06:49:22;;;;;;;4.85;4.55;;;;;;;22.17;100.00;102219.06;5303211;28;20027;-81
2022/06/17 06:51:53;;;;;;;4.20;3.78;;;;;;;22.40;100.00;102233.81;5299914;28;20551;-80
2022/06/17 06:54:23;;;;;;;3.80;3.55;;;;;;;22.43;100.00;102203.75;5295665;28;20481;-80
2022/06/17 06:56:55;;;;;;;4.45;4.25;;;;;;;22.65;100.00;102210.50;5290588;28;20083;-81
2022/06/17 06:59:26;;;;;;;3.78;3.55;;;;;;;22.75;100.00;102207.56;5299661;28;20030;-80
2022/06/17 07:01:56;;;;;;;4.72;4.28;;;;;;;22.79;100.00;102190.16;5301453;28;20086;-81
2022/06/17 07:04:26;;;;;;;3.85;3.65;;;;;;;22.87;100.00;102192.16;5301003;28;20031;-81
2022/06/17 07:06:57;;;;;;;4.30;3.47;;;;;;;22.92;100.00;102196.75;5300882;28;20027;-82
2022/06/17 07:09:27;;;;;;;5.80;4.55;;;;;;;23.09;100.00;102193.38;5300173;28;20019;-82
2022/06/17 07:11:58;;;;;;;3.33;3.13;;;;;;;23.12;100.00;102162.44;5281859;28;20375;-82
2022/06/17 07:14:28;;;;;;;3.78;3.58;;;;;;;23.43;100.00;102190.94;5279632;28;20028;-81
2022/06/17 07:16:58;;;;;;;4.60;4.20;;;;;;;23.84;100.00;102218.44;5278412;28;20032;-81
2022/06/17 07:19:29;;;;;;;6.75;4.28;;;;;;;23.87;100.00;102198.50;5277206;28;20067;-82
2022/06/17 07:21:59;;;;;;;4.15;3.75;;;;;;;24.22;100.00;102207.81;5278040;28;20107;-82
2022/06/17 07:24:30;;;;;;;5.50;4.43;;;;;;;24.38;100.00;102199.97;5276417;28;20016;-83
2022/06/17 07:27:00;;;;;;;8.65;4.38;;;;;;;24.55;100.00;102196.47;5279079;28;20023;-82
2022/06/17 07:29:30;;;;;;;4.60;4.20;;;;;;;24.69;99.70;102191.66;5283608;28;20028;-82
2022/06/17 07:32:01;;;;;;;6.68;4.63;;;;;;;24.97;98.23;102213.56;5288640;28;20023;-83
2022/06/17 07:34:32;;;;;;;4.95;4.15;;;;;;;24.86;94.86;102224.88;5291014;28;20032;-85
2022/06/17 07:39:54;;;;;;;7.97;5.35;;;;;;;25.05;95.44;102234.91;5279766;28;20032;-84
2022/06/17 07:42:37;;;;;;;4.30;4.10;;;;;;;24.96;95.20;102225.75;5277613;28;20019;-86
2022/06/17 07:45:14;;;;;;;3.85;3.58;;;;;;;24.91;97.24;102197.09;5278222;28;20023;-84
2022/06/17 07:47:48;;;;;;;2.90;2.70;;;;;;;25.24;95.42;102244.53;5279112;28;20016;-85
2022/06/17 07:50:23;;;;;;;5.32;5.00;;;;;;;25.11;94.92;102201.25;5277936;28;20028;-86
2022/06/17 07:52:54;;;;;;;4.65;4.35;;;;;;;25.41;94.25;102237.41;5278181;28;20032;-85
2022/06/17 07:55:25;;;;;;;4.55;3.50;;;;;;;25.40;94.46;102228.31;5277385;28;20027;-85
2022/06/17 07:57:55;;;;;;;3.47;3.03;;;;;;;25.56;92.60;102229.44;5279093;28;20024;-86
2022/06/17 08:00:34;;;;;;;6.25;3.50;;;;;;;25.73;94.74;102227.84;5279126;28;20026;-84
2022/06/17 08:03:05;;;;;;;4.00;3.80;;;;;;;25.42;91.32;102162.41;5278617;28;20062;-84
2022/06/17 08:05:37;;;;;;;6.57;4.72;;;;;;;26.01;92.46;102226.34;5277317;28;20024;-85
2022/06/17 08:08:08;;;;;;;3.25;3.13;;;;;;;26.18;91.98;102214.47;5277843;28;20500;-84
2022/06/17 08:10:39;;;;;;;2.80;2.60;;;;;;;25.99;89.52;102175.25;5278908;28;20024;-82
2022/06/17 08:13:09;;;;;;;2.90;2.72;;;;;;;26.13;89.08;102184.97;5277096;28;20035;-83
2022/06/17 08:15:40;;;;;;;3.78;3.33;;;;;;;26.16;91.08;102198.16;5276479;28;20595;-84
2022/06/17 08:18:11;;;;;;;6.32;4.05;;;;;;;26.11;90.81;102161.53;5275546;28;20024;-86
2022/06/17 08:20:41;;;;;;;7.30;3.45;;;;;;;26.23;87.22;102162.47;5277275;28;20031;-82
2022/06/17 08:23:12;;;;;;;3.38;3.03;;;;;;;26.27;87.71;102170.94;5279044;28;20024;-82
2022/06/17 08:25:43;;;;;;;3.22;3.10;;;;;;;26.51;88.07;102212.75;5278444;28;20075;-84
2022/06/17 08:28:14;;;;;;;8.00;3.40;;;;;;;26.58;89.14;102188.09;5279193;28;20028;-84
2022/06/17 08:30:48;;;;;;;3.75;3.55;;;;;;;27.00;88.35;102224.31;5278330;28;20496;-83
2022/06/17 08:33:27;;;;;;;3.05;2.90;;;;;;;27.20;89.17;102219.94;5278909;28;20200;-82
2022/06/17 08:36:04;;;;;;;2.80;2.60;;;;;;;27.38;84.72;102231.75;5274552;28;20028;-83
2022/06/17 08:38:40;;;;;;;4.68;3.53;;;;;;;27.53;84.59;102223.63;5273542;28;20327;-80
2022/06/17 08:41:31;;;;;;;4.13;3.80;;;;;;;27.69;83.36;102221.09;5270736;28;20020;-80
2022/06/17 08:44:23;;;;;;;2.60;2.50;;;;;;;27.82;82.45;102219.16;5291665;28;20015;-82
2022/06/17 08:47:15;;;;;;;2.78;2.55;;;;;;;28.05;82.86;102217.63;5294936;28;20027;-82
2022/06/17 08:50:04;;;;;;;2.47;2.35;;;;;;;28.28;84.29;102209.75;5295631;28;20504;-81
2022/06/17 08:52:46;;;;;;;;;;;;;;;28.40;80.38;102212.53;5294678;28;20019;-81
2022/06/17 08:55:53;;;;;;;7.28;3.25;;;;;;;28.49;77.75;102209.66;5293863;28;19965;-81
2022/06/17 08:58:29;;;;;;;6.78;2.30;;;;;;;28.56;77.23;102193.25;5240400;28;20085;-80
2022/06/17 09:01:25;;;;;;;2.42;2.33;;;;;;;28.67;79.34;102194.38;5297154;28;20491;-80
2022/06/17 09:04:20;;;;;;;2.90;2.70;;;;;;;28.59;75.03;102195.28;5297839;28;20024;-81
2022/06/17 09:07:16;;;;;;;2.78;2.58;;;;;;;28.71;77.34;102200.06;5301464;28;20023;-81
2022/06/17 09:09:58;;;;;;;2.35;2.15;;;;;;;28.84;73.69;102193.38;5300943;28;20188;-81
2022/06/17 09:12:46;;;;;;;2.63;2.42;;;;;;;28.51;72.50;102202.59;5303732;28;20031;-81
2022/06/17 09:15:31;;;;;;;7.93;3.03;;;;;;;28.42;73.76;102198.31;5307373;28;20087;-81
2022/06/17 09:18:14;;;;;;;2.30;2.20;;;;;;;28.68;74.38;102190.44;5303102;28;20028;-81
2022/06/17 09:20:52;;;;;;;2.13;2.03;;;;;;;29.11;74.94;102195.44;5302162;28;20063;-80
2022/06/17 09:23:26;;;;;;;2.70;2.50;;;;;;;29.27;74.73;102209.44;5301412;28;20023;-82
2022/06/17 09:25:58;;;;;;;2.90;2.40;;;;;;;29.50;71.64;102212.53;5301043;28;20096;-81
2022/06/17 09:28:35;;;;;;;1.77;1.67;;;;;;;29.55;70.04;102213.09;5302229;28;20019;-81
2022/06/17 09:31:14;;;;;;;2.75;2.55;;;;;;;29.57;72.80;102196.03;5300456;28;20039;-81
2022/06/17 09:33:58;;;;;;;4.43;2.45;;;;;;;29.74;71.91;102198.53;5300223;28;20036;-83
2022/06/17 09:36:31;;;;;;;1.58;1.58;;;;;;;29.69;68.32;102201.59;5302462;28;20110;-83
2022/06/17 09:39:13;;;;;;;2.85;2.65;;;;;;;29.79;68.84;102187.13;5302288;28;20023;-82
2022/06/17 09:42:06;;;;;;;3.03;2.38;;;;;;;30.12;67.23;102194.41;5303208;27;20031;-81
2022/06/17 09:44:51;;;;;;;1.80;1.65;;;;;;;30.11;66.40;102181.66;5308010;28;20015;-83
2022/06/17 09:47:21;;;;;;;3.22;1.60;;;;;;;30.12;69.03;102192.44;5302261;28;20030;-82
2022/06/17 09:50:12;;;;;;;2.45;2.30;;;;;;;29.66;63.61;102168.06;5301943;28;20027;-83
2022/06/17 09:52:53;;;;;;;2.88;2.65;;;;;;;29.76;66.32;102190.63;5299814;28;20069;-82
2022/06/17 09:55:32;;;;;;;1.55;1.55;;;;;;;29.87;63.71;102188.16;5300363;28;20019;-83
2022/06/17 09:58:11;;;;;;;2.33;2.17;;;;;;;30.00;65.46;102173.03;5301725;28;20031;-82
2022/06/17 10:00:43;;;;;;;;;;;;;;;30.08;62.29;102185.16;5301109;28;20069;-82
2022/06/17 10:03:22;;;;;;;4.80;2.55;;;;;;;30.11;65.44;102190.00;5300218;28;19914;-83
2022/06/17 10:05:59;;;;;;;2.80;2.08;;;;;;;30.33;64.71;102177.44;5302622;28;20053;-83
2022/06/17 10:08:41;;;;;;;2.35;2.17;;;;;;;30.46;66.72;102170.63;5300588;28;20493;-83
2022/06/17 10:11:23;;;;;;;3.78;2.08;;;;;;;30.54;64.76;102169.63;5301964;28;20019;-82
2022/06/17 10:14:25;;;;;;;2.13;1.52;;;;;;;30.37;61.52;102156.88;5300370;28;20618;-83
2022/06/17 10:20:22;;;;;;;4.53;1.90;;;;;;;30.47;63.07;102177.81;5302212;28;20051;-83
2022/06/17 10:23:02;;;;;;;6.07;2.38;;;;;;;30.62;64.12;102177.03;5301602;28;20031;-83
2022/06/17 10:25:56;;;;;;;2.97;2.70;;;;;;;30.78;63.93;102185.38;5301816;28;20076;-82
2022/06/17 10:28:45;;;;;;;3.08;2.78;;;;;;;30.86;64.96;102174.03;5301810;28;20023;-84
2022/06/17 10:31:28;;;;;;;7.82;2.58;;;;;;;30.71;63.67;102158.13;5301733;28;20385;-82
2022/06/17 10:34:03;;;;;;;2.60;2.40;;;;;;;30.69;63.03;102160.47;5299212;28;20104;-83
2022/06/17 10:36:33;;;;;;;3.35;2.30;;;;;;;30.85;64.59;102166.84;5302040;28;20089;-85
2022/06/17 10:39:10;;;;;;;2.38;2.17;;;;;;;30.81;63.33;102162.34;5302640;28;20107;-83
2022/06/17 10:41:41;;;;;;;2.20;2.10;;;;;;;30.74;60.67;102151.00;5318515;27;20047;-83
2022/06/17 10:44:16;;;;;;;2.03;1.80;;;;;;;30.75;62.25;102147.06;5300949;28;20020;-83
2022/06/17 10:46:59;;;;;;;2.60;1.98;;;;;;;31.13;61.86;102154.75;5300287;28;20024;-84
2022/06/17 10:49:36;;;;;;;7.85;3.47;;;;;;;31.30;58.79;102159.88;5299761;28;20027;-83
2022/06/17 10:52:19;;;;;;;2.08;1.98;;;;;;;31.36;61.69;102161.22;5299377;28;20024;-83
2022/06/17 10:54:52;;;;;;;11.80;2.47;;;;;;;31.43;60.73;102158.56;5299182;28;20036;-82
2022/06/17 10:57:31;;;;;;;2.38;2.22;;;;;;;31.31;57.23;102153.13;5299964;28;20019;-83
2022/06/17 11:00:32;;;;;;;2.30;1.98;;;;;;;31.10;57.85;102147.06;5301250;28;20020;-82
2022/06/17 11:03:33;;;;;;;2.03;1.92;;;;;;;31.24;62.62;102144.59;5300469;28;20020;-81
2022/06/17 11:06:06;;;;;;;2.90;2.70;;;;;;;31.18;60.38;102137.72;5297061;28;20501;-82
2022/06/17 11:08:54;;;;;;;1.80;1.70;;;;;;;31.24;60.07;102136.22;5298409;28;20039;-82
2022/06/17 11:14:24;;;;;;;2.28;2.17;;;;;;;31.49;57.97;102115.19;5298734;28;20089;-80
2022/06/17 11:16:55;;;;;;;1.85;1.67;;;;;;;31.44;56.43;102115.53;5298101;28;20091;-82
2022/06/17 11:19:27;;;;;;;3.83;2.03;;;;;;;31.47;57.11;102122.34;5299178;28;20039;-82
2022/06/17 11:22:02;;;;;;;2.95;2.50;;;;;;;31.30;56.90;102109.63;5298010;28;20112;-83
2022/06/17 11:24:40;;;;;;;2.03;1.92;;;;;;;31.47;56.22;102109.16;5299485;28;20020;-82
2022/06/17 11:27:23;;;;;;;1.95;1.50;;;;;;;31.78;54.23;102126.94;5298107;28;20027;-81
2022/06/17 11:30:06;;;;;;;1.98;1.77;;;;;;;31.81;56.07;102123.41;5298591;28;20484;-81
2022/06/17 11:32:37;;;;;;;3.67;2.22;;;;;;;31.57;55.56;102110.56;5296833;28;20132;-81
2022/06/17 11:35:29;;;;;;;2.67;2.58;;;;;;;31.78;56.25;102115.78;5298442;28;20031;-81
2022/06/17 11:38:03;;;;;;;3.17;2.97;;;;;;;31.88;55.28;102092.81;5298583;28;20393;-81
2022/06/17 11:40:36;;;;;;;4.28;2.70;;;;;;;32.02;55.99;102103.47;5313445;27;20251;-82
2022/06/17 11:43:06;;;;;;;3.22;2.28;;;;;;;32.14;54.89;102090.06;5298319;28;20029;-79
2022/06/17 11:45:41;;;;;;;2.67;2.53;;;;;;;32.02;54.13;102065.13;5297323;28;20592;-81
2022/06/17 11:48:22;;;;;;;3.58;2.22;;;;;;;32.02;53.57;102084.69;5298290;28;20020;-82
2022/06/17 11:51:00;;;;;;;1.90;1.80;;;;;;;32.22;55.15;102097.44;5298819;28;20051;-82
2022/06/17 11:53:40;;;;;;;2.88;2.20;;;;;;;32.14;52.44;102078.91;5297501;28;20076;-82
2022/06/17 11:56:25;;;;;;;2.63;2.42;;;;;;;31.92;52.12;102071.34;5303306;28;20047;-81
2022/06/17 11:59:00;;;;;;;8.35;2.53;;;;;;;31.87;52.34;102097.59;5297256;28;20100;-82
2022/06/17 12:01:31;;;;;;;7.25;2.90;;;;;;;31.83;54.85;102066.00;5296516;28;20019;-82
2022/06/17 12:04:02;;;;;;;7.90;3.47;;;;;;;32.22;55.33;102088.25;5296363;28;20023;-81
2022/06/17 12:06:47;;;;;;;2.33;2.20;;;;;;;32.30;52.71;102052.84;5295219;28;20032;-81
2022/06/17 12:09:31;;;;;;;1.65;1.55;;;;;;;32.54;52.62;102080.34;5295959;28;20433;-81
2022/06/17 12:12:10;;;;;;;5.78;3.17;;;;;;;32.54;55.22;102083.97;5297257;28;20238;-82
2022/06/17 12:14:53;;;;;;;;;;;;;;;32.74;53.92;102083.81;5296702;28;20023;-82
2022/06/17 12:17:24;;;;;;;3.78;2.75;;;;;;;32.77;54.48;102047.53;5304183;28;19902;-81
2022/06/17 12:19:57;;;;;;;2.63;2.10;;;;;;;32.36;51.96;102017.75;5305430;28;20023;-80